Terminal Aerodrome Forecast
Issued by NWS

Home | Current Version | Previous Version | Text Only | Print | Product List | Glossary On
Versions: 1 2 3 4 5 6 7 8 9 10 11 12 13 14 15
000
FTUS42 TJSJ 211729
TAFJPS
TAF
TJPS 211729Z 2118/2218 13015G20KT 5SM HZ FEW025
     FM212300 VRB05KT P6SM SKC
     FM221400 13013G23KT P6SM FEW030=

USA.gov is the U.S. government's official web portal to all federal, state and local government web resources and services.